createdAt,value
2023-03-16T00:01:04.591Z,100404.34
2023-03-16T00:03:36.972Z,100404.20
2023-03-16T00:06:09.664Z,100400.54
2023-03-16T00:08:43.525Z,100406.70
2023-03-16T00:11:16.145Z,100410.17
2023-03-16T00:13:47.748Z,100409.70
2023-03-16T00:16:19.695Z,100413.44
2023-03-16T00:18:51.156Z,100413.36
2023-03-16T00:21:22.919Z,100414.30
2023-03-16T00:23:54.918Z,100418.41
2023-03-16T00:26:28.229Z,100421.17
2023-03-16T00:28:59.830Z,100426.96
2023-03-16T00:31:34.108Z,100429.81
2023-03-16T00:34:05.827Z,100429.81
2023-03-16T00:36:38.626Z,100433.64
2023-03-16T00:39:11.805Z,100433.71
2023-03-16T00:41:43.404Z,100431.96
2023-03-16T00:44:14.781Z,100432.92
2023-03-16T00:46:46.281Z,100433.69
2023-03-16T00:49:17.770Z,100434.74
2023-03-16T00:51:49.355Z,100429.50
2023-03-16T00:54:22.421Z,100431.27
2023-03-16T00:56:54.139Z,100430.42
2023-03-16T00:59:26.680Z,100435.55
2023-03-16T01:01:58.833Z,100435.70
2023-03-16T01:04:31.301Z,100434.73
2023-03-16T01:07:03.224Z,100431.84
2023-03-16T01:09:37.252Z,100430.73
2023-03-16T01:12:11.997Z,100431.76
2023-03-16T01:14:46.286Z,100437.23
2023-03-16T01:17:19.204Z,100433.27
2023-03-16T01:20:12.264Z,100441.08
2023-03-16T01:22:43.853Z,100436.63
2023-03-16T01:25:16.364Z,100433.21
2023-03-16T01:27:47.952Z,100436.34
2023-03-16T01:30:19.514Z,100433.81
2023-03-16T01:32:51.438Z,100437.91
2023-03-16T01:35:23.156Z,100437.38
2023-03-16T01:37:54.824Z,100441.20
2023-03-16T01:40:26.595Z,100443.12
2023-03-16T01:43:06.432Z,100446.27
2023-03-16T01:46:23.847Z,100445.93
2023-03-16T01:49:01.434Z,100446.72
2023-03-16T01:51:37.449Z,100448.62
2023-03-16T01:54:15.407Z,100457.16
2023-03-16T01:56:52.959Z,100454.50
2023-03-16T01:59:29.248Z,100456.81
2023-03-16T02:02:00.764Z,100454.75
2023-03-16T02:04:43.813Z,100454.69
2023-03-16T02:07:18.724Z,100462.65
2023-03-16T02:09:50.641Z,100455.34
2023-03-16T02:12:23.205Z,100455.54
2023-03-16T02:14:55.371Z,100460.02
2023-03-16T02:17:30.042Z,100464.50
2023-03-16T02:20:16.213Z,100459.85
2023-03-16T02:22:50.753Z,100462.72
2023-03-16T02:25:28.251Z,100465.38
2023-03-16T02:28:07.410Z,100473.19
2023-03-16T02:30:39.186Z,100464.20
2023-03-16T02:33:11.518Z,100479.36
2023-03-16T02:35:43.154Z,100477.17
2023-03-16T02:38:14.870Z,100486.02
2023-03-16T02:40:47.612Z,100489.95
2023-03-16T02:43:25.141Z,100494.39
2023-03-16T02:46:00.153Z,100496.57
2023-03-16T02:48:34.786Z,100499.77
2023-03-16T02:51:06.468Z,100495.35
2023-03-16T02:53:39.837Z,100498.96
2023-03-16T02:56:11.651Z,100503.73
2023-03-16T02:58:43.040Z,100508.73
2023-03-16T03:01:14.523Z,100516.30
2023-03-16T03:03:46.178Z,100519.95
2023-03-16T03:06:17.990Z,100524.35
2023-03-16T03:08:49.504Z,100528.30
2023-03-16T03:11:21.248Z,100532.48
2023-03-16T03:13:52.740Z,100537.09
2023-03-16T03:16:24.495Z,100535.59
2023-03-16T03:18:55.986Z,100540.45
2023-03-16T03:21:27.633Z,100540.27
2023-03-16T03:23:59.191Z,100539.06
2023-03-16T03:26:30.750Z,100539.05
2023-03-16T03:29:02.765Z,100540.21
2023-03-16T03:31:34.284Z,100543.27
2023-03-16T03:34:07.002Z,100543.23
2023-03-16T03:36:38.891Z,100541.52
2023-03-16T03:39:10.541Z,100536.33
2023-03-16T03:41:42.050Z,100539.80
2023-03-16T03:44:13.694Z,100547.95
2023-03-16T03:46:45.419Z,100549.67
2023-03-16T03:49:17.389Z,100548.27
2023-03-16T03:51:49.061Z,100555.11
2023-03-16T03:54:21.008Z,100556.11
2023-03-16T03:56:52.797Z,100555.17
2023-03-16T03:59:24.334Z,100556.09
2023-03-16T04:01:56.040Z,100556.18
2023-03-16T04:04:27.811Z,100558.56
2023-03-16T04:06:59.468Z,100561.11
2023-03-16T04:09:34.265Z,100561.06
2023-03-16T04:12:05.163Z,100560.61
2023-03-16T04:14:37.035Z,100562.06
2023-03-16T04:17:08.919Z,100566.95
2023-03-16T04:19:40.852Z,100565.52
2023-03-16T04:22:13.482Z,100571.36
2023-03-16T04:24:45.636Z,100566.59
2023-03-16T04:34:56.198Z,100570.40
2023-03-16T04:37:29.163Z,100569.70
2023-03-16T04:40:10.986Z,100574.44
2023-03-16T04:42:44.537Z,100576.06
2023-03-16T04:45:21.427Z,100575.55
2023-03-16T04:47:55.062Z,100575.76
2023-03-16T04:50:27.286Z,100577.63
2023-03-16T04:53:02.710Z,100579.15
2023-03-16T04:55:34.588Z,100577.98
2023-03-16T04:58:09.132Z,100586.30
2023-03-16T05:00:43.260Z,100592.46
2023-03-16T05:03:15.472Z,100588.27
2023-03-16T05:06:12.359Z,100587.46
2023-03-16T05:08:45.609Z,100587.69
2023-03-16T05:11:22.416Z,100584.67
2023-03-16T05:14:09.138Z,100587.23
2023-03-16T05:16:49.286Z,100575.36
2023-03-16T05:19:21.120Z,100592.06
2023-03-16T05:21:54.837Z,100596.01
2023-03-16T05:24:26.555Z,100600.30
2023-03-16T05:26:59.521Z,100598.48
2023-03-16T05:29:31.781Z,100602.39
2023-03-16T05:32:04.409Z,100596.38
2023-03-16T05:34:37.380Z,100594.47
2023-03-16T05:37:09.354Z,100598.56
2023-03-16T05:39:45.789Z,100594.13
2023-03-16T05:42:17.710Z,100594.60
2023-03-16T05:44:49.618Z,100598.60
2023-03-16T05:47:21.614Z,100597.78
2023-03-16T05:49:55.598Z,100598.88
2023-03-16T05:52:27.814Z,100600.52
2023-03-16T05:54:59.501Z,100600.95
2023-03-16T05:57:32.740Z,100605.32
2023-03-16T06:00:11.628Z,100607.85
2023-03-16T06:02:44.123Z,100614.73
2023-03-16T06:05:16.700Z,100612.14
2023-03-16T06:07:50.793Z,100609.66
2023-03-16T06:10:23.253Z,100614.40
2023-03-16T06:12:55.246Z,100614.50
2023-03-16T06:15:42.292Z,100620.60
2023-03-16T06:18:14.000Z,100615.83
2023-03-16T06:20:47.459Z,100622.20
2023-03-16T06:23:21.956Z,100620.87
2023-03-16T06:25:56.731Z,100621.35
2023-03-16T06:28:26.700Z,100628.07
2023-03-16T06:30:59.844Z,100630.48
2023-03-16T06:33:31.923Z,100629.93
2023-03-16T06:36:03.563Z,100626.31
2023-03-16T06:38:35.163Z,100631.65
2023-03-16T06:41:06.937Z,100626.19
2023-03-16T06:43:38.914Z,100630.53
2023-03-16T06:46:11.559Z,100635.58
2023-03-16T06:48:43.822Z,100641.71
2023-03-16T06:51:16.867Z,100645.52
2023-03-16T06:53:48.915Z,100648.54
2023-03-16T06:56:20.869Z,100646.23
2023-03-16T06:58:52.780Z,100648.02
2023-03-16T07:01:25.062Z,100645.88
2023-03-16T07:04:11.565Z,100648.05
2023-03-16T07:06:55.362Z,100649.20
2023-03-16T07:09:35.280Z,100648.02
2023-03-16T07:12:16.317Z,100649.37
2023-03-16T07:14:52.432Z,100651.47
2023-03-16T07:17:26.881Z,100651.58
2023-03-16T07:19:58.684Z,100658.36
2023-03-16T07:22:30.425Z,100658.44
2023-03-16T07:25:13.061Z,100662.38
2023-03-16T07:27:48.995Z,100657.19
2023-03-16T07:30:21.451Z,100664.64
2023-03-16T07:32:55.991Z,100664.21
2023-03-16T07:35:30.198Z,100664.19
2023-03-16T07:38:07.975Z,100665.63
2023-03-16T07:40:41.425Z,100666.27
2023-03-16T07:43:13.612Z,100664.95
2023-03-16T07:45:49.130Z,100671.63
2023-03-16T07:48:21.598Z,100672.89
2023-03-16T07:51:07.588Z,100671.13
2023-03-16T07:53:44.535Z,100666.20
2023-03-16T07:56:16.260Z,100667.63
2023-03-16T07:58:47.984Z,100668.59
2023-03-16T08:01:19.732Z,100666.63
2023-03-16T08:03:52.035Z,100663.20
2023-03-16T08:06:25.793Z,100666.67
2023-03-16T08:08:57.641Z,100667.17
2023-03-16T08:11:30.790Z,100675.71
2023-03-16T08:14:02.499Z,100680.19
2023-03-16T08:16:34.322Z,100683.55
2023-03-16T08:19:05.930Z,100674.31
2023-03-16T08:21:53.052Z,100677.23
2023-03-16T08:24:29.864Z,100684.56
2023-03-16T08:27:02.227Z,100683.38
2023-03-16T08:29:34.794Z,100682.31
2023-03-16T08:32:07.508Z,100684.53
2023-03-16T08:34:40.428Z,100682.73
2023-03-16T08:37:12.754Z,100685.28
2023-03-16T08:39:45.843Z,100684.55
2023-03-16T08:42:17.967Z,100684.66
2023-03-16T08:44:49.704Z,100687.44
2023-03-16T08:47:21.405Z,100690.04
2023-03-16T08:49:55.996Z,100689.39
2023-03-16T08:52:27.810Z,100691.02
2023-03-16T08:55:03.857Z,100697.05
2023-03-16T08:57:36.146Z,100696.46
2023-03-16T09:00:15.309Z,100699.31
2023-03-16T09:02:48.709Z,100698.84
2023-03-16T09:05:20.896Z,100701.43
2023-03-16T09:07:54.727Z,100702.69
2023-03-16T09:10:28.027Z,100698.48
2023-03-16T09:12:59.996Z,100695.53
2023-03-16T09:15:33.405Z,100698.90
2023-03-16T09:18:06.043Z,100696.67
2023-03-16T09:21:17.657Z,100701.91
2023-03-16T09:23:49.484Z,100691.81
2023-03-16T09:26:21.701Z,100697.89
2023-03-16T09:28:56.614Z,100697.04
2023-03-16T09:31:28.656Z,100696.21
2023-03-16T09:34:00.559Z,100694.98
2023-03-16T09:36:33.984Z,100700.91
2023-03-16T09:39:08.468Z,100698.60
2023-03-16T09:41:48.971Z,100702.55
2023-03-16T09:44:34.661Z,100698.36
2023-03-16T09:47:09.011Z,100690.20
2023-03-16T09:49:45.939Z,100695.89
2023-03-16T09:52:28.617Z,100697.34
2023-03-16T09:55:06.291Z,100695.77
2023-03-16T09:58:00.439Z,100700.55
2023-03-16T10:01:01.018Z,100689.27
2023-03-16T10:04:13.865Z,100697.98
2023-03-16T10:06:57.213Z,100705.96
2023-03-16T10:09:39.983Z,100708.32
2023-03-16T10:12:15.072Z,100705.80
2023-03-16T10:14:51.314Z,100708.64
2023-03-16T10:17:33.831Z,100709.90
2023-03-16T10:20:10.753Z,100707.76
2023-03-16T10:22:51.343Z,100709.95
2023-03-16T10:25:29.206Z,100708.98
2023-03-16T10:28:00.795Z,100710.26
2023-03-16T10:30:35.653Z,100708.27
2023-03-16T10:33:39.833Z,100710.30
2023-03-16T10:36:27.315Z,100709.29
2023-03-16T10:39:05.834Z,100709.71
2023-03-16T10:41:42.198Z,100716.23
2023-03-16T10:44:17.080Z,100720.40
2023-03-16T10:46:55.039Z,100724.00
2023-03-16T10:50:18.183Z,100722.83
2023-03-16T10:56:23.173Z,100719.30
2023-03-16T11:02:22.720Z,100724.71
2023-03-16T11:04:59.622Z,100725.25
2023-03-16T11:07:42.381Z,100728.50
2023-03-16T11:10:40.517Z,100727.25
2023-03-16T11:13:46.762Z,100728.10
2023-03-16T11:16:54.905Z,100716.61
2023-03-16T11:19:30.706Z,100731.93
2023-03-16T11:22:07.157Z,100734.70
2023-03-16T11:24:46.935Z,100738.09
2023-03-16T11:27:26.516Z,100739.20
2023-03-16T11:30:12.211Z,100742.40
2023-03-16T11:32:49.506Z,100736.98
2023-03-16T11:35:39.895Z,100728.94
2023-03-16T11:38:17.931Z,100732.17
2023-03-16T11:40:58.525Z,100726.95
2023-03-16T11:43:53.048Z,100731.39
2023-03-16T11:46:29.494Z,100732.83
2023-03-16T11:49:54.981Z,100734.85
2023-03-16T11:53:16.188Z,100725.25
2023-03-16T11:56:01.786Z,100727.14
2023-03-16T11:58:48.447Z,100728.45
2023-03-16T12:01:25.161Z,100727.14
2023-03-16T12:04:22.119Z,100726.35
2023-03-16T12:07:35.463Z,100724.23
2023-03-16T12:10:26.537Z,100724.27
2023-03-16T12:13:35.150Z,100717.19
2023-03-16T12:16:39.098Z,100722.70
2023-03-16T12:19:54.405Z,100730.33
2023-03-16T12:23:06.544Z,100730.46
2023-03-16T12:25:43.104Z,100728.26
2023-03-16T12:28:24.082Z,100724.65
2023-03-16T12:31:03.871Z,100730.61
2023-03-16T12:34:00.846Z,100731.55
2023-03-16T12:36:57.293Z,100731.70
2023-03-16T12:40:38.791Z,100733.11
2023-03-16T12:43:54.479Z,100732.19
2023-03-16T12:47:03.510Z,100727.15
2023-03-16T12:51:13.364Z,100728.25
2023-03-16T12:53:42.583Z,100729.94
2023-03-16T12:56:18.003Z,100725.36
2023-03-16T12:58:56.711Z,100718.43
2023-03-16T13:01:39.883Z,100725.14
2023-03-16T13:04:16.446Z,100724.83
2023-03-16T13:06:51.097Z,100723.88
2023-03-16T13:09:38.004Z,100722.95
2023-03-16T13:12:33.137Z,100717.23
2023-03-16T13:15:17.586Z,100726.66
2023-03-16T13:17:52.976Z,100726.63
2023-03-16T13:20:32.819Z,100724.99
2023-03-16T13:24:35.005Z,100726.68
2023-03-16T13:27:43.605Z,100725.78
2023-03-16T13:33:54.668Z,100725.54
2023-03-16T13:37:11.563Z,100737.77
2023-03-16T13:39:56.440Z,100735.35
2023-03-16T13:43:27.482Z,100738.25
2023-03-16T13:49:11.155Z,100735.33
2023-03-16T13:55:48.774Z,100727.70
2023-03-16T13:56:02.932Z,100732.98
2023-03-16T13:58:35.393Z,100730.97
2023-03-16T14:01:19.827Z,100738.86
2023-03-16T14:03:52.792Z,100739.73
2023-03-16T14:06:27.975Z,100733.30
2023-03-16T14:09:03.161Z,100735.44
2023-03-16T14:11:35.373Z,100735.16
2023-03-16T14:14:18.295Z,100743.68
2023-03-16T14:16:50.055Z,100752.07
2023-03-16T14:19:26.203Z,100756.32
2023-03-16T14:21:58.226Z,100753.55
2023-03-16T14:24:35.042Z,100758.66
2023-03-16T14:27:22.792Z,100759.05
2023-03-16T14:30:07.183Z,100754.13
2023-03-16T14:32:55.488Z,100761.79
2023-03-16T14:35:30.788Z,100764.67
2023-03-16T14:38:23.704Z,100764.39
2023-03-16T14:41:01.153Z,100764.54
2023-03-16T14:43:36.163Z,100764.58
2023-03-16T14:46:09.594Z,100768.56
2023-03-16T14:48:41.617Z,100765.95
2023-03-16T14:51:17.246Z,100773.52
2023-03-16T14:53:49.008Z,100777.74
2023-03-16T14:56:22.999Z,100779.96
2023-03-16T14:58:54.776Z,100780.94
2023-03-16T15:01:37.425Z,100773.71
2023-03-16T15:04:09.805Z,100770.11
2023-03-16T15:07:18.975Z,100780.20
2023-03-16T15:10:01.028Z,100783.42
2023-03-16T15:12:52.428Z,100779.44
2023-03-16T15:15:29.035Z,100774.67
2023-03-16T15:18:01.864Z,100779.45
2023-03-16T15:20:37.816Z,100778.32
2023-03-16T15:23:17.527Z,100779.54
2023-03-16T15:25:58.693Z,100784.74
2023-03-16T15:28:33.469Z,100782.77
2023-03-16T15:31:17.486Z,100786.36
2023-03-16T15:33:57.765Z,100794.61
2023-03-16T15:36:46.629Z,100794.41
2023-03-16T15:39:26.561Z,100796.05
2023-03-16T15:41:58.825Z,100806.39
2023-03-16T15:44:30.910Z,100806.56
2023-03-16T15:47:03.508Z,100807.70
2023-03-16T15:49:45.068Z,100808.03
2023-03-16T15:52:29.095Z,100808.42
2023-03-16T15:55:04.861Z,100807.99
2023-03-16T15:57:37.221Z,100812.09
2023-03-16T16:00:18.718Z,100814.83
2023-03-16T16:03:14.374Z,100814.35
2023-03-16T16:06:18.874Z,100811.70
2023-03-16T16:09:53.383Z,100812.85
2023-03-16T16:19:49.741Z,100822.98
2023-03-16T16:22:23.233Z,100825.77
2023-03-16T16:26:04.951Z,100827.94
2023-03-16T16:32:44.466Z,100837.15
2023-03-16T16:47:46.550Z,100844.78
2023-03-16T16:50:21.550Z,100850.11
2023-03-16T16:53:30.995Z,100846.41
2023-03-16T16:56:38.855Z,100853.67
2023-03-16T16:59:55.424Z,100852.84
2023-03-16T17:03:02.351Z,100854.75
2023-03-16T17:09:53.991Z,100863.90
2023-03-16T17:20:08.928Z,100874.23
2023-03-16T17:20:28.618Z,100869.88
2023-03-16T17:29:01.418Z,100877.27
2023-03-16T17:33:37.963Z,100880.63
2023-03-16T17:36:13.401Z,100879.33
2023-03-16T17:39:09.924Z,100883.72
2023-03-16T17:41:44.984Z,100889.61
2023-03-16T17:44:16.801Z,100883.81
2023-03-16T17:46:52.030Z,100884.16
2023-03-16T17:49:29.262Z,100888.83
2023-03-16T17:52:13.241Z,100890.16
2023-03-16T17:54:48.064Z,100888.95
2023-03-16T17:57:28.980Z,100891.91
2023-03-16T18:00:01.532Z,100894.66
2023-03-16T18:02:48.223Z,100897.95
2023-03-16T18:05:44.930Z,100897.46
2023-03-16T18:08:30.329Z,100898.76
2023-03-16T18:11:04.358Z,100892.69
2023-03-16T18:13:45.503Z,100898.23
2023-03-16T18:16:27.633Z,100898.17
2023-03-16T18:19:08.080Z,100899.13
2023-03-16T18:21:38.772Z,100898.58
2023-03-16T18:24:16.770Z,100900.06
2023-03-16T18:26:49.736Z,100903.11
2023-03-16T18:29:23.101Z,100908.02
2023-03-16T18:32:05.073Z,100911.83
2023-03-16T18:34:41.941Z,100914.39
2023-03-16T18:37:24.289Z,100912.52
2023-03-16T18:40:03.383Z,100914.79
2023-03-16T18:42:34.902Z,100917.77
2023-03-16T18:45:12.032Z,100921.20
2023-03-16T18:47:48.268Z,100920.89
2023-03-16T18:50:29.077Z,100922.11
2023-03-16T18:53:02.512Z,100921.66
2023-03-16T18:55:35.512Z,100923.88
2023-03-16T18:58:19.718Z,100922.98
2023-03-16T19:00:56.659Z,100922.72
2023-03-16T19:03:32.111Z,100925.64
2023-03-16T19:06:18.178Z,100930.18
2023-03-16T19:09:16.593Z,100921.02
2023-03-16T19:31:00.182Z,100941.30
2023-03-16T19:38:19.612Z,100948.65
2023-03-16T19:48:54.234Z,100952.77
2023-03-16T19:55:05.454Z,100955.61
2023-03-16T19:57:38.562Z,100954.27
2023-03-16T20:00:25.580Z,100957.91
2023-03-16T20:03:01.102Z,100960.57
2023-03-16T20:05:34.170Z,100967.71
2023-03-16T20:08:19.510Z,100965.16
2023-03-16T20:10:59.966Z,100961.35
2023-03-16T20:13:35.064Z,100959.30
2023-03-16T20:16:27.551Z,100961.77
2023-03-16T20:22:10.842Z,100959.27
2023-03-16T20:24:44.130Z,100953.87
2023-03-16T20:27:16.019Z,100954.58
2023-03-16T20:29:53.101Z,100958.77
2023-03-16T20:32:30.679Z,100959.09
2023-03-16T20:35:02.430Z,100960.58
2023-03-16T20:37:35.467Z,100960.84
2023-03-16T20:40:09.716Z,100965.55
2023-03-16T20:42:43.659Z,100962.56
2023-03-16T20:45:30.853Z,100967.70
2023-03-16T20:48:12.834Z,100969.08
2023-03-16T20:50:48.837Z,100970.20
2023-03-16T20:53:24.469Z,100973.87
2023-03-16T20:56:04.823Z,100976.20
2023-03-16T20:58:38.344Z,100975.94
2023-03-16T21:01:17.754Z,100976.11
2023-03-16T21:03:53.301Z,100979.49
2023-03-16T21:09:50.247Z,100976.63
2023-03-16T21:12:36.737Z,100976.48
2023-03-16T21:15:18.419Z,100981.11
2023-03-16T21:17:52.995Z,100986.48
2023-03-16T21:20:24.878Z,100987.98
2023-03-16T21:22:54.134Z,100984.77
2023-03-16T21:25:29.345Z,100985.53
2023-03-16T21:28:03.141Z,100985.73
2023-03-16T21:30:45.274Z,100973.55
2023-03-16T21:33:26.032Z,100979.14
2023-03-16T21:35:57.477Z,100985.64
2023-03-16T21:38:28.764Z,100979.97
2023-03-16T21:40:58.834Z,100982.44
2023-03-16T21:43:31.342Z,100984.52
2023-03-16T21:46:00.514Z,100986.56
2023-03-16T21:48:36.194Z,100988.80
2023-03-16T21:51:11.133Z,100987.62
2023-03-16T21:53:42.083Z,100986.61
2023-03-16T21:56:32.404Z,100983.85
2023-03-16T21:59:01.363Z,100978.77
2023-03-16T22:01:34.186Z,100985.35
2023-03-16T22:04:05.590Z,100988.17
2023-03-16T22:06:34.851Z,100983.54
2023-03-16T22:09:04.297Z,100980.88
2023-03-16T22:11:33.426Z,100983.29
2023-03-16T22:14:02.510Z,100983.42
2023-03-16T22:16:41.865Z,100984.41
2023-03-16T22:19:32.100Z,100982.04
2023-03-16T22:22:01.641Z,100980.98
2023-03-16T22:24:36.668Z,100985.61
2023-03-16T22:27:16.700Z,100988.80
2023-03-16T22:29:45.804Z,100987.36
2023-03-16T22:32:22.193Z,100984.10
2023-03-16T22:34:55.531Z,100985.66
2023-03-16T22:37:28.815Z,100982.99
2023-03-16T22:39:58.206Z,100978.52
2023-03-16T22:42:32.488Z,100970.20
2023-03-16T22:45:01.875Z,100979.35
2023-03-16T22:47:32.460Z,100983.56
2023-03-16T22:50:10.169Z,100982.33
2023-03-16T22:52:39.360Z,100985.07
2023-03-16T22:55:16.042Z,100987.54
2023-03-16T22:57:47.189Z,100987.66
2023-03-16T23:00:21.843Z,100988.30
2023-03-16T23:02:51.133Z,100991.38
2023-03-16T23:05:24.779Z,100989.55
2023-03-16T23:07:54.754Z,100995.05
2023-03-16T23:10:27.907Z,100996.80
2023-03-16T23:12:59.966Z,100988.88
2023-03-16T23:15:31.103Z,100997.43
2023-03-16T23:18:00.326Z,101003.41
2023-03-16T23:20:32.235Z,101006.52
2023-03-16T23:23:01.230Z,101004.83
2023-03-16T23:25:30.328Z,101010.14
2023-03-16T23:28:01.293Z,101012.84
2023-03-16T23:30:31.665Z,101015.56
2023-03-16T23:33:00.946Z,101017.34
2023-03-16T23:35:31.417Z,101016.78
2023-03-16T23:38:00.581Z,101023.81
2023-03-16T23:40:30.401Z,101029.70
2023-03-16T23:43:01.641Z,101028.55
2023-03-16T23:45:34.895Z,101024.22
2023-03-16T23:48:08.054Z,101024.38
2023-03-16T23:50:37.997Z,101032.80
2023-03-16T23:53:13.317Z,101037.01
2023-03-16T23:55:43.262Z,101034.20
2023-03-16T23:58:13.349Z,101033.80
